Time;durP1;ratioP1;P1;durP2;ratioP2;P2;SDS_P1;SDS_P2;PMS_P1;PMS_P2;Temp;Humidity;BMP_temperature;BMP_pressure;BME280_temperature;BME280_humidity;BME280_pressure;Samples;Min_cycle;Max_cycle;Signal;HPM_P1;HPM_P2
2022/06/24 00:00:10;;;;;;;;;9.40;7.40;;;;;;;;4961931;28;8811;-68
2022/06/24 00:02:38;;;;;;;;;11.40;9.60;;;;;;;;4978398;28;8779;-67
2022/06/24 00:05:10;;;;;;;;;11.00;9.00;;;;;;;;4979432;28;8767;-68
2022/06/24 00:07:47;;;;;;;;;9.20;8.80;;;;;;;;4961215;28;8837;-68
2022/06/24 00:10:14;;;;;;;;;12.40;9.00;;;;;;;;4980105;28;8767;-68
2022/06/24 00:12:41;;;;;;;;;9.00;9.00;;;;;;;;4979035;28;8845;-68
2022/06/24 00:15:08;;;;;;;;;7.40;6.20;;;;;;;;4961973;28;8776;-68
2022/06/24 00:17:34;;;;;;;;;7.00;7.00;;;;;;;;4958206;28;8800;-68
2022/06/24 00:20:02;;;;;;;;;9.80;8.80;;;;;;;;4958470;28;8836;-68
2022/06/24 00:22:29;;;;;;;;;13.00;10.00;;;;;;;;4959384;28;8879;-67
2022/06/24 00:25:11;;;;;;;;;12.00;9.40;;;;;;;;4960286;28;8796;-68
2022/06/24 00:27:38;;;;;;;;;15.40;13.60;;;;;;;;4959324;28;8890;-68
2022/06/24 00:30:23;;;;;;;;;14.00;12.00;;;;;;;;4974398;28;8887;-68
2022/06/24 00:32:50;;;;;;;;;17.20;11.60;;;;;;;;4957723;28;9181;-68
2022/06/24 00:35:18;;;;;;;;;15.80;14.40;;;;;;;;4941942;28;8804;-68
2022/06/24 00:37:45;;;;;;;;;15.20;12.00;;;;;;;;4959034;28;8808;-68
2022/06/24 00:40:11;;;;;;;;;14.60;10.60;;;;;;;;4959409;28;8803;-68
2022/06/24 00:42:39;;;;;;;;;8.40;7.00;;;;;;;;4958818;28;8825;-68
2022/06/24 00:45:15;;;;;;;;;13.00;11.40;;;;;;;;4958713;28;8876;-67
2022/06/24 00:47:42;;;;;;;;;16.20;13.40;;;;;;;;4959944;28;8783;-68
2022/06/24 00:50:28;;;;;;;;;10.80;9.20;;;;;;;;4977376;28;8811;-68
2022/06/24 00:52:58;;;;;;;;;12.40;10.80;;;;;;;;4977914;28;8787;-68
2022/06/24 00:55:28;;;;;;;;;6.00;6.00;;;;;;;;4960732;28;8779;-67
2022/06/24 00:57:55;;;;;;;;;10.00;7.00;;;;;;;;4978638;28;8752;-68
2022/06/24 01:00:25;;;;;;;;;9.80;8.00;;;;;;;;4977582;28;8783;-68
2022/06/24 01:02:56;;;;;;;;;6.60;6.00;;;;;;;;4978251;28;8779;-68
2022/06/24 01:05:23;;;;;;;;;6.80;6.40;;;;;;;;4977996;28;8794;-67
2022/06/24 01:07:50;;;;;;;;;8.20;6.00;;;;;;;;4978107;28;8849;-68
2022/06/24 01:10:16;;;;;;;;;6.00;4.60;;;;;;;;4978774;28;8783;-69
2022/06/24 01:12:43;;;;;;;;;12.00;8.00;;;;;;;;4977777;28;8849;-68
2022/06/24 01:15:10;;;;;;;;;17.80;12.00;;;;;;;;4977932;28;9393;-68
2022/06/24 01:17:39;;;;;;;;;9.40;7.00;;;;;;;;4977249;28;8779;-69
2022/06/24 01:20:09;;;;;;;;;5.60;5.60;;;;;;;;4978188;28;8782;-69
2022/06/24 01:22:39;;;;;;;;;7.40;6.60;;;;;;;;4960550;28;8768;-68
2022/06/24 01:25:06;;;;;;;;;5.80;5.60;;;;;;;;4978911;28;8772;-69
2022/06/24 01:27:32;;;;;;;;;11.00;7.80;;;;;;;;4960561;28;8918;-68
2022/06/24 01:29:59;;;;;;;;;8.40;6.80;;;;;;;;4978260;28;9408;-69
2022/06/24 01:32:26;;;;;;;;;8.60;5.60;;;;;;;;4977646;28;8901;-68
2022/06/24 01:34:52;;;;;;;;;11.40;9.40;;;;;;;;4977784;28;8797;-69
2022/06/24 01:37:19;;;;;;;;;7.00;6.60;;;;;;;;4978243;28;8771;-68
2022/06/24 01:39:46;;;;;;;;;9.00;8.00;;;;;;;;4981707;28;8803;-69
2022/06/24 01:42:12;;;;;;;;;8.20;8.20;;;;;;;;4981518;28;8898;-68
2022/06/24 01:44:39;;;;;;;;;9.20;7.00;;;;;;;;4964010;28;8821;-69
2022/06/24 01:47:06;;;;;;;;;8.00;6.80;;;;;;;;4981257;28;8771;-69
2022/06/24 01:49:32;;;;;;;;;9.00;6.00;;;;;;;;4980421;28;8926;-68
2022/06/24 01:51:59;;;;;;;;;8.60;7.20;;;;;;;;4964123;28;8791;-68
2022/06/24 01:54:26;;;;;;;;;5.40;4.00;;;;;;;;4962716;28;8809;-68
2022/06/24 01:56:53;;;;;;;;;4.60;3.20;;;;;;;;4978407;28;8862;-69
2022/06/24 01:59:20;;;;;;;;;5.60;5.40;;;;;;;;4979976;28;8790;-68
2022/06/24 02:01:46;;;;;;;;;6.00;5.40;;;;;;;;4980293;28;8767;-68
2022/06/24 02:04:13;;;;;;;;;8.00;5.00;;;;;;;;4981426;28;8767;-68
2022/06/24 02:06:40;;;;;;;;;4.60;3.40;;;;;;;;4963063;28;8830;-69
2022/06/24 02:09:07;;;;;;;;;7.00;7.00;;;;;;;;4980768;28;8779;-69
2022/06/24 02:14:19;;;;;;;;;16.20;8.20;;;;;;;;4980205;28;8787;-67
2022/06/24 02:16:46;;;;;;;;;7.60;7.40;;;;;;;;4955138;28;8841;-69
2022/06/24 02:19:13;;;;;;;;;8.80;7.60;;;;;;;;4981105;28;8787;-68
2022/06/24 02:21:40;;;;;;;;;7.00;7.00;;;;;;;;4980493;28;8791;-69
2022/06/24 02:24:06;;;;;;;;;8.20;6.80;;;;;;;;4980698;28;8985;-68
2022/06/24 02:26:33;;;;;;;;;8.00;6.20;;;;;;;;4980121;28;8954;-68
2022/06/24 02:29:00;;;;;;;;;7.80;5.80;;;;;;;;4980338;28;8783;-68
2022/06/24 02:31:26;;;;;;;;;9.80;7.60;;;;;;;;4980263;28;8748;-68
2022/06/24 02:33:53;;;;;;;;;6.00;6.00;;;;;;;;4963971;28;8917;-68
2022/06/24 02:36:20;;;;;;;;;8.00;8.00;;;;;;;;4979988;28;8798;-68
2022/06/24 02:38:46;;;;;;;;;7.60;6.40;;;;;;;;4980233;28;8790;-68
2022/06/24 02:41:13;;;;;;;;;7.60;5.60;;;;;;;;4980342;28;8784;-68
2022/06/24 02:43:40;;;;;;;;;6.80;6.60;;;;;;;;4979978;28;8764;-68
2022/06/24 02:46:07;;;;;;;;;8.40;8.00;;;;;;;;4980544;28;8747;-68
2022/06/24 02:48:34;;;;;;;;;11.80;8.00;;;;;;;;4977184;28;8819;-68
2022/06/24 02:51:02;;;;;;;;;8.60;7.40;;;;;;;;4978673;28;8814;-68
2022/06/24 02:53:29;;;;;;;;;7.20;7.00;;;;;;;;4979318;28;8854;-68
2022/06/24 02:55:57;;;;;;;;;7.20;7.00;;;;;;;;4979033;28;8767;-68
2022/06/24 02:58:24;;;;;;;;;7.40;6.60;;;;;;;;4979221;28;8767;-68
2022/06/24 03:00:51;;;;;;;;;7.80;7.20;;;;;;;;4980084;28;8788;-68
2022/06/24 03:03:19;;;;;;;;;8.40;5.60;;;;;;;;4979783;28;8768;-67
2022/06/24 03:05:46;;;;;;;;;8.00;6.00;;;;;;;;4980167;28;8775;-68
2022/06/24 03:08:13;;;;;;;;;7.00;6.40;;;;;;;;4979831;28;8807;-69
2022/06/24 03:10:39;;;;;;;;;6.00;5.40;;;;;;;;4980015;28;8913;-68
2022/06/24 03:13:06;;;;;;;;;7.20;6.60;;;;;;;;4963908;28;8841;-68
2022/06/24 03:15:33;;;;;;;;;9.20;7.20;;;;;;;;4981270;28;8803;-68
2022/06/24 03:17:59;;;;;;;;;8.60;7.40;;;;;;;;4981225;28;8768;-68
2022/06/24 03:20:26;;;;;;;;;10.20;8.80;;;;;;;;4978807;28;8861;-68
2022/06/24 03:22:53;;;;;;;;;8.40;7.60;;;;;;;;4963068;28;8779;-68
2022/06/24 03:25:20;;;;;;;;;7.60;7.60;;;;;;;;4963191;28;8822;-68
2022/06/24 03:27:46;;;;;;;;;5.60;5.00;;;;;;;;4962472;28;8803;-69
2022/06/24 03:30:13;;;;;;;;;5.80;5.80;;;;;;;;4979942;28;8818;-69
2022/06/24 03:32:40;;;;;;;;;8.60;7.80;;;;;;;;4980102;28;8865;-68
2022/06/24 03:35:07;;;;;;;;;9.80;6.80;;;;;;;;4963499;28;8768;-69
2022/06/24 03:37:33;;;;;;;;;7.80;6.40;;;;;;;;4963057;28;8799;-68
2022/06/24 03:40:00;;;;;;;;;8.00;7.20;;;;;;;;4980994;28;8764;-69
2022/06/24 03:42:27;;;;;;;;;8.40;8.20;;;;;;;;4979653;28;8831;-68
2022/06/24 03:44:54;;;;;;;;;10.00;6.00;;;;;;;;4980536;28;8791;-68
2022/06/24 03:47:20;;;;;;;;;12.00;10.80;;;;;;;;4980266;28;8775;-68
2022/06/24 03:49:47;;;;;;;;;12.00;9.20;;;;;;;;4963138;28;8798;-69
2022/06/24 03:52:14;;;;;;;;;10.00;8.20;;;;;;;;4979347;28;9519;-69
2022/06/24 03:54:41;;;;;;;;;9.40;6.00;;;;;;;;4962664;28;8779;-68
2022/06/24 03:57:07;;;;;;;;;7.40;7.40;;;;;;;;4979662;28;8805;-68
2022/06/24 03:59:34;;;;;;;;;10.80;9.80;;;;;;;;4979584;28;8803;-68
2022/06/24 04:02:00;;;;;;;;;7.20;7.00;;;;;;;;4977463;28;8775;-69
2022/06/24 04:04:27;;;;;;;;;9.20;8.60;;;;;;;;4962331;28;8791;-67
2022/06/24 04:06:54;;;;;;;;;10.00;8.20;;;;;;;;4962978;28;8834;-68
2022/06/24 04:09:22;;;;;;;;;10.20;8.40;;;;;;;;4978445;28;8834;-67
2022/06/24 04:11:49;;;;;;;;;9.80;8.20;;;;;;;;4960039;28;8763;-68
2022/06/24 04:15:13;;;;;;;;;9.80;9.20;;;;;;;;4977398;28;8788;-68
2022/06/24 04:17:03;;;;;;;;;7.40;7.40;;;;;;;;4977551;28;8783;-68
2022/06/24 04:19:30;;;;;;;;;10.20;7.80;;;;;;;;4977679;28;8755;-68
2022/06/24 04:21:57;;;;;;;;;10.40;9.00;;;;;;;;4961160;28;9026;-69
2022/06/24 04:24:23;;;;;;;;;7.20;7.20;;;;;;;;4977858;28;8775;-68
2022/06/24 04:26:50;;;;;;;;;10.40;10.00;;;;;;;;4978056;28;8841;-69
2022/06/24 04:29:17;;;;;;;;;10.00;8.60;;;;;;;;4978670;28;8775;-68
2022/06/24 04:31:43;;;;;;;;;7.80;7.40;;;;;;;;4957085;28;9424;-68
2022/06/24 04:34:10;;;;;;;;;9.20;7.60;;;;;;;;4959426;28;8841;-68
2022/06/24 04:36:37;;;;;;;;;11.80;8.00;;;;;;;;4958881;28;8888;-68
2022/06/24 04:39:03;;;;;;;;;9.00;7.80;;;;;;;;4958967;28;8777;-69
2022/06/24 04:41:30;;;;;;;;;9.20;7.20;;;;;;;;4958396;28;8805;-68
2022/06/24 04:43:57;;;;;;;;;9.40;8.60;;;;;;;;4958809;28;8808;-68
2022/06/24 04:46:23;;;;;;;;;7.20;7.00;;;;;;;;4967040;28;8779;-68
2022/06/24 04:48:50;;;;;;;;;9.60;8.80;;;;;;;;4978318;28;8834;-69
2022/06/24 04:51:17;;;;;;;;;9.40;9.00;;;;;;;;4960649;28;9421;-67
2022/06/24 04:53:43;;;;;;;;;5.40;5.40;;;;;;;;4977712;28;8787;-69
2022/06/24 04:56:11;;;;;;;;;8.80;7.60;;;;;;;;4976870;28;8906;-69
2022/06/24 04:58:37;;;;;;;;;9.80;9.00;;;;;;;;4977933;28;8910;-68
2022/06/24 05:01:04;;;;;;;;;7.00;6.60;;;;;;;;4978696;28;8772;-68
2022/06/24 05:03:30;;;;;;;;;9.00;6.20;;;;;;;;4960164;28;8794;-68
2022/06/24 05:05:57;;;;;;;;;6.00;6.00;;;;;;;;4960747;28;8786;-68
2022/06/24 05:08:24;;;;;;;;;9.20;7.00;;;;;;;;4977649;28;8796;-68
2022/06/24 05:10:50;;;;;;;;;11.80;8.60;;;;;;;;4977789;28;8779;-69
2022/06/24 05:13:17;;;;;;;;;9.80;7.20;;;;;;;;4960893;28;8764;-68
2022/06/24 05:15:44;;;;;;;;;8.80;7.40;;;;;;;;4960259;28;8808;-68
2022/06/24 05:18:10;;;;;;;;;8.80;7.20;;;;;;;;4978188;28;8776;-68
2022/06/24 05:20:37;;;;;;;;;7.60;7.60;;;;;;;;4976336;28;8783;-68
2022/06/24 05:23:03;;;;;;;;;7.60;7.40;;;;;;;;4977904;28;8878;-68
2022/06/24 05:25:31;;;;;;;;;9.00;8.20;;;;;;;;4976715;28;8790;-68
2022/06/24 05:27:58;;;;;;;;;12.80;9.20;;;;;;;;4978597;28;8784;-69
2022/06/24 05:30:24;;;;;;;;;13.20;9.00;;;;;;;;4977765;28;8794;-68
2022/06/24 05:32:51;;;;;;;;;9.40;8.40;;;;;;;;4977782;28;8946;-69
2022/06/24 05:35:17;;;;;;;;;9.60;8.00;;;;;;;;4978063;28;8768;-68
2022/06/24 05:37:44;;;;;;;;;8.80;8.60;;;;;;;;4978175;28;8802;-68
2022/06/24 05:40:11;;;;;;;;;8.20;7.60;;;;;;;;4961025;28;9460;-69
2022/06/24 05:42:38;;;;;;;;;11.00;7.60;;;;;;;;4977878;28;9476;-69
2022/06/24 05:45:05;;;;;;;;;8.20;8.00;;;;;;;;4977593;28;8771;-69
2022/06/24 05:47:31;;;;;;;;;9.20;7.80;;;;;;;;4977216;28;8856;-67
2022/06/24 05:49:58;;;;;;;;;15.00;10.00;;;;;;;;4976892;28;8792;-67
2022/06/24 05:55:09;;;;;;;;;7.80;7.80;;;;;;;;4978199;28;8772;-67
2022/06/24 05:57:36;;;;;;;;;10.60;10.00;;;;;;;;4977072;28;8817;-67
2022/06/24 06:00:03;;;;;;;;;10.60;8.40;;;;;;;;4976699;28;8842;-67
2022/06/24 06:02:30;;;;;;;;;10.00;10.00;;;;;;;;4976197;28;8775;-67
2022/06/24 06:04:56;;;;;;;;;10.20;8.60;;;;;;;;4977964;28;8768;-67
2022/06/24 06:07:25;;;;;;;;;10.20;10.00;;;;;;;;4978333;28;8817;-67
2022/06/24 06:09:51;;;;;;;;;12.60;10.60;;;;;;;;4960883;28;10151;-68
2022/06/24 06:12:18;;;;;;;;;12.60;9.80;;;;;;;;4977467;28;8806;-67
2022/06/24 06:14:45;;;;;;;;;9.40;8.40;;;;;;;;4960932;28;8779;-68
2022/06/24 06:17:11;;;;;;;;;8.40;7.60;;;;;;;;4960687;28;8840;-68
2022/06/24 06:19:38;;;;;;;;;10.60;9.80;;;;;;;;4977524;28;8784;-67
2022/06/24 06:22:05;;;;;;;;;9.40;9.00;;;;;;;;4978502;28;8777;-67
2022/06/24 06:24:32;;;;;;;;;9.00;8.20;;;;;;;;4979426;28;8767;-68
2022/06/24 06:26:59;;;;;;;;;7.40;7.00;;;;;;;;4980994;28;8887;-67
2022/06/24 06:29:25;;;;;;;;;8.60;7.00;;;;;;;;4981059;28;8861;-67
2022/06/24 06:31:52;;;;;;;;;3.00;2.80;;;;;;;;4980852;28;8791;-67
2022/06/24 06:34:19;;;;;;;;;4.00;4.00;;;;;;;;4963807;28;8768;-65
2022/06/24 06:36:46;;;;;;;;;4.60;4.00;;;;;;;;4980653;28;8771;-67
2022/06/24 06:39:12;;;;;;;;;6.60;6.20;;;;;;;;4980472;28;8787;-68
2022/06/24 06:41:39;;;;;;;;;7.40;5.80;;;;;;;;4980626;28;9617;-67
2022/06/24 06:44:06;;;;;;;;;6.60;5.00;;;;;;;;4981060;28;9534;-67
2022/06/24 06:46:32;;;;;;;;;6.00;6.00;;;;;;;;4962925;28;8826;-68
2022/06/24 06:48:59;;;;;;;;;5.00;4.80;;;;;;;;4981311;28;8854;-68
2022/06/24 06:51:26;;;;;;;;;6.60;6.60;;;;;;;;4980570;28;8787;-67
2022/06/24 06:53:52;;;;;;;;;6.80;4.60;;;;;;;;4980629;28;8788;-67
2022/06/24 06:56:19;;;;;;;;;5.00;5.00;;;;;;;;4980867;28;8775;-66
2022/06/24 06:58:45;;;;;;;;;7.20;5.60;;;;;;;;4980786;28;8803;-67
2022/06/24 07:01:12;;;;;;;;;6.60;5.40;;;;;;;;4980044;28;8882;-67
2022/06/24 07:03:39;;;;;;;;;5.00;4.60;;;;;;;;4980297;28;8847;-67
2022/06/24 07:06:05;;;;;;;;;7.00;5.20;;;;;;;;4980490;28;8779;-67
2022/06/24 07:08:32;;;;;;;;;7.60;5.00;;;;;;;;4962828;28;8821;-67
2022/06/24 07:10:59;;;;;;;;;6.60;4.60;;;;;;;;4980445;28;8768;-67
2022/06/24 07:13:27;;;;;;;;;5.00;4.20;;;;;;;;4963105;28;8791;-66
2022/06/24 07:15:54;;;;;;;;;3.00;3.00;;;;;;;;4980954;28;8806;-67
2022/06/24 07:18:20;;;;;;;;;3.20;3.20;;;;;;;;4962502;28;8791;-67
2022/06/24 07:20:47;;;;;;;;;5.00;4.80;;;;;;;;4980050;28;8783;-67
2022/06/24 07:23:13;;;;;;;;;5.20;5.20;;;;;;;;4980581;28;8800;-67
2022/06/24 07:25:40;;;;;;;;;3.20;3.20;;;;;;;;4980210;28;8768;-67
2022/06/24 07:28:07;;;;;;;;;6.40;4.20;;;;;;;;4980843;28;8830;-67
2022/06/24 07:30:34;;;;;;;;;4.80;4.00;;;;;;;;4979998;28;8790;-67
2022/06/24 07:33:00;;;;;;;;;5.20;5.20;;;;;;;;4980205;28;8786;-68
2022/06/24 07:35:27;;;;;;;;;4.00;4.00;;;;;;;;4978656;28;8790;-67
2022/06/24 07:37:54;;;;;;;;;7.00;5.00;;;;;;;;4980096;28;9217;-67
2022/06/24 07:40:20;;;;;;;;;5.40;3.80;;;;;;;;4980528;28;8793;-66
2022/06/24 07:42:47;;;;;;;;;6.00;4.20;;;;;;;;4979554;28;8803;-67
2022/06/24 07:45:14;;;;;;;;;3.80;3.80;;;;;;;;4979803;28;8818;-67
2022/06/24 07:47:40;;;;;;;;;4.00;4.00;;;;;;;;4962000;28;8763;-67
2022/06/24 07:50:07;;;;;;;;;7.00;5.60;;;;;;;;4979595;28;8780;-67
2022/06/24 07:52:34;;;;;;;;;3.80;3.80;;;;;;;;4979563;28;8854;-67
2022/06/24 07:57:45;;;;;;;;;7.20;5.00;;;;;;;;4979637;28;8791;-67
2022/06/24 08:00:12;;;;;;;;;3.00;2.60;;;;;;;;4979439;28;8779;-67
2022/06/24 08:02:39;;;;;;;;;4.40;4.20;;;;;;;;4979262;28;8795;-67
2022/06/24 08:05:05;;;;;;;;;4.20;4.20;;;;;;;;4962774;28;8786;-67
2022/06/24 08:07:32;;;;;;;;;4.00;4.00;;;;;;;;4961783;28;8796;-67
2022/06/24 08:09:59;;;;;;;;;4.00;3.00;;;;;;;;4980249;28;8782;-67
2022/06/24 08:12:25;;;;;;;;;3.80;3.80;;;;;;;;4979159;28;8790;-67
2022/06/24 08:14:52;;;;;;;;;1.20;1.20;;;;;;;;4979493;28;8863;-67
2022/06/24 08:17:19;;;;;;;;;2.40;2.40;;;;;;;;4978897;28;8775;-66
2022/06/24 08:19:45;;;;;;;;;0.60;0.60;;;;;;;;4979649;28;8779;-67
2022/06/24 08:22:12;;;;;;;;;2.80;2.40;;;;;;;;4980052;28;8759;-67
2022/06/24 08:24:40;;;;;;;;;1.20;1.20;;;;;;;;4979672;28;8807;-67
2022/06/24 08:27:07;;;;;;;;;2.60;2.20;;;;;;;;4979474;28;8791;-67
2022/06/24 08:29:34;;;;;;;;;4.60;3.80;;;;;;;;4979182;28;8822;-67
2022/06/24 08:32:00;;;;;;;;;4.00;4.00;;;;;;;;4958994;28;8844;-67
2022/06/24 08:34:27;;;;;;;;;1.80;1.80;;;;;;;;4960006;28;9802;-66
2022/06/24 08:36:54;;;;;;;;;3.80;3.00;;;;;;;;4961076;28;8770;-67
2022/06/24 08:39:20;;;;;;;;;2.60;0.20;;;;;;;;4959854;28;8848;-66
2022/06/24 08:41:48;;;;;;;;;3.60;3.60;;;;;;;;4955676;29;8817;-67
2022/06/24 08:44:15;;;;;;;;;3.00;3.00;;;;;;;;4940575;29;8789;-67
2022/06/24 08:46:41;;;;;;;;;3.80;3.80;;;;;;;;4964721;28;8822;-67
2022/06/24 08:49:08;;;;;;;;;3.40;2.00;;;;;;;;4960662;28;8914;-67
2022/06/24 08:51:35;;;;;;;;;4.20;3.80;;;;;;;;4959562;28;8893;-67
2022/06/24 08:54:02;;;;;;;;;3.00;3.00;;;;;;;;4959912;28;8791;-67
2022/06/24 08:56:29;;;;;;;;;5.80;3.40;;;;;;;;4974573;28;8774;-67
2022/06/24 08:58:56;;;;;;;;;4.80;4.80;;;;;;;;4960061;28;8809;-67
2022/06/24 09:01:23;;;;;;;;;4.40;4.00;;;;;;;;4959858;28;9487;-67
2022/06/24 09:03:49;;;;;;;;;5.40;5.20;;;;;;;;4959382;28;8778;-67
2022/06/24 09:06:17;;;;;;;;;4.60;4.60;;;;;;;;4959614;28;8849;-67
2022/06/24 09:08:48;;;;;;;;;5.40;4.00;;;;;;;;4974261;28;9443;-67
2022/06/24 09:11:15;;;;;;;;;6.40;5.40;;;;;;;;4959319;28;8778;-67
2022/06/24 09:13:46;;;;;;;;;4.00;4.00;;;;;;;;4959514;28;8767;-67
2022/06/24 09:16:13;;;;;;;;;5.60;5.60;;;;;;;;4971626;28;8755;-67
2022/06/24 09:18:40;;;;;;;;;6.20;4.00;;;;;;;;4959065;28;8798;-67
2022/06/24 09:21:07;;;;;;;;;6.40;5.00;;;;;;;;4959343;28;8787;-67
2022/06/24 09:23:33;;;;;;;;;4.40;4.20;;;;;;;;4973625;28;8917;-67
2022/06/24 09:26:00;;;;;;;;;6.20;6.20;;;;;;;;4959348;28;8783;-67
2022/06/24 09:28:28;;;;;;;;;4.60;4.60;;;;;;;;4959045;28;8810;-67
2022/06/24 09:31:02;;;;;;;;;5.00;5.00;;;;;;;;4959594;28;8897;-68
2022/06/24 09:33:28;;;;;;;;;4.60;4.60;;;;;;;;4958934;28;8763;-67
2022/06/24 09:36:01;;;;;;;;;6.60;6.40;;;;;;;;4958866;28;8857;-67
2022/06/24 09:38:28;;;;;;;;;10.00;5.60;;;;;;;;4958615;28;9417;-67
2022/06/24 09:41:01;;;;;;;;;6.00;6.00;;;;;;;;4974209;28;8876;-67
2022/06/24 09:43:31;;;;;;;;;7.80;6.20;;;;;;;;4977971;28;8802;-66
2022/06/24 09:45:58;;;;;;;;;6.60;5.60;;;;;;;;4978967;28;8768;-67
2022/06/24 09:48:29;;;;;;;;;6.40;6.00;;;;;;;;4977713;28;8799;-67
2022/06/24 09:50:56;;;;;;;;;6.20;6.00;;;;;;;;4978035;28;8803;-67
2022/06/24 09:53:25;;;;;;;;;6.00;6.00;;;;;;;;4977893;28;8780;-67
2022/06/24 09:55:51;;;;;;;;;7.40;6.00;;;;;;;;4977244;28;8763;-68
2022/06/24 09:58:18;;;;;;;;;6.00;5.00;;;;;;;;4978254;28;8767;-67
2022/06/24 10:00:46;;;;;;;;;7.00;6.40;;;;;;;;4981669;28;8787;-67
2022/06/24 10:03:13;;;;;;;;;6.00;5.00;;;;;;;;4981620;28;8787;-68
2022/06/24 10:05:41;;;;;;;;;6.20;5.00;;;;;;;;4981707;28;8797;-67
2022/06/24 10:08:12;;;;;;;;;6.40;6.40;;;;;;;;4964170;28;8890;-67
2022/06/24 10:10:40;;;;;;;;;7.00;5.20;;;;;;;;4981499;28;9732;-67
2022/06/24 10:13:10;;;;;;;;;5.00;2.60;;;;;;;;4981756;28;8739;-68
2022/06/24 10:15:38;;;;;;;;;6.20;6.00;;;;;;;;4963931;28;8815;-67
2022/06/24 10:18:09;;;;;;;;;7.60;6.40;;;;;;;;4981404;28;8780;-67
2022/06/24 10:20:35;;;;;;;;;7.00;6.00;;;;;;;;4980062;28;8787;-67
2022/06/24 10:23:02;;;;;;;;;6.80;6.60;;;;;;;;4980346;28;8878;-67
2022/06/24 10:25:47;;;;;;;;;6.20;5.00;;;;;;;;4980745;28;8764;-67
2022/06/24 10:28:14;;;;;;;;;6.20;4.80;;;;;;;;4981508;28;8886;-68
2022/06/24 10:30:40;;;;;;;;;6.20;5.20;;;;;;;;4980786;28;8779;-67
2022/06/24 10:33:18;;;;;;;;;7.00;7.00;;;;;;;;4981216;28;8764;-68
2022/06/24 10:35:55;;;;;;;;;6.00;6.00;;;;;;;;4964279;28;8771;-67
2022/06/24 10:38:22;;;;;;;;;6.60;5.80;;;;;;;;4980684;28;9412;-67
2022/06/24 10:40:49;;;;;;;;;6.40;6.40;;;;;;;;4963817;28;8771;-68
2022/06/24 10:43:22;;;;;;;;;6.80;6.80;;;;;;;;4957620;28;8920;-68
2022/06/24 10:45:49;;;;;;;;;7.60;6.80;;;;;;;;4957162;28;9490;-68
2022/06/24 10:48:15;;;;;;;;;8.80;7.60;;;;;;;;4942288;29;8830;-67
2022/06/24 10:50:42;;;;;;;;;7.20;6.00;;;;;;;;4940837;29;8789;-67
2022/06/24 10:53:09;;;;;;;;;5.20;4.20;;;;;;;;4957092;29;9426;-68
2022/06/24 10:55:36;;;;;;;;;4.20;4.20;;;;;;;;4942224;28;8800;-67
2022/06/24 10:58:04;;;;;;;;;3.40;3.40;;;;;;;;4942850;29;8821;-68
2022/06/24 11:00:31;;;;;;;;;7.80;7.80;;;;;;;;4941534;28;8797;-67
2022/06/24 11:02:58;;;;;;;;;7.20;6.40;;;;;;;;4942214;29;8769;-68
2022/06/24 11:05:26;;;;;;;;;5.20;4.20;;;;;;;;4940609;28;8777;-67
2022/06/24 11:07:53;;;;;;;;;8.00;8.00;;;;;;;;4942427;29;8778;-68
2022/06/24 11:10:20;;;;;;;;;12.60;8.80;;;;;;;;4941626;28;8780;-67
2022/06/24 11:12:54;;;;;;;;;8.80;6.00;;;;;;;;4941897;29;8765;-68
2022/06/24 11:15:41;;;;;;;;;7.00;7.00;;;;;;;;4941505;29;8853;-67
2022/06/24 11:18:08;;;;;;;;;6.20;5.00;;;;;;;;4922577;29;8776;-68
2022/06/24 11:20:36;;;;;;;;;11.40;9.00;;;;;;;;4922424;29;8784;-67
2022/06/24 11:23:04;;;;;;;;;7.80;7.80;;;;;;;;4922923;29;8886;-67
2022/06/24 11:25:31;;;;;;;;;7.80;7.40;;;;;;;;4921700;29;8804;-67
2022/06/24 11:27:58;;;;;;;;;9.60;7.80;;;;;;;;4922163;29;8808;-67
2022/06/24 11:30:24;;;;;;;;;11.40;8.00;;;;;;;;4923084;29;8806;-67
2022/06/24 11:32:52;;;;;;;;;8.00;7.80;;;;;;;;4941794;29;8773;-67
2022/06/24 11:35:19;;;;;;;;;9.60;9.60;;;;;;;;4940094;28;8917;-67
2022/06/24 11:37:45;;;;;;;;;8.20;7.60;;;;;;;;4941596;29;8868;-67
2022/06/24 11:40:21;;;;;;;;;7.60;6.20;;;;;;;;4940930;29;8789;-67
2022/06/24 11:42:48;;;;;;;;;8.40;6.20;;;;;;;;4939994;29;9507;-67
2022/06/24 11:45:15;;;;;;;;;10.20;8.80;;;;;;;;4941301;28;8800;-67
2022/06/24 11:47:42;;;;;;;;;6.40;5.60;;;;;;;;4941048;28;8809;-70
2022/06/24 11:50:18;;;;;;;;;10.20;8.20;;;;;;;;4955807;28;9457;-71
2022/06/24 11:52:45;;;;;;;;;7.00;7.00;;;;;;;;4940812;28;8833;-68
2022/06/24 11:55:28;;;;;;;;;13.00;11.20;;;;;;;;4941873;29;8769;-68
2022/06/24 11:57:56;;;;;;;;;9.00;9.00;;;;;;;;4941808;29;8765;-68
2022/06/24 12:00:23;;;;;;;;;8.80;7.20;;;;;;;;4941107;28;8773;-68
2022/06/24 12:02:49;;;;;;;;;10.80;8.00;;;;;;;;4922179;29;9405;-68
2022/06/24 12:05:16;;;;;;;;;10.80;10.20;;;;;;;;4922508;29;8800;-68
2022/06/24 12:07:43;;;;;;;;;11.80;9.00;;;;;;;;4920457;29;8823;-68
2022/06/24 12:10:10;;;;;;;;;10.00;8.00;;;;;;;;4920983;29;8745;-68
2022/06/24 12:12:37;;;;;;;;;6.80;6.00;;;;;;;;4921484;29;8835;-68
2022/06/24 12:15:04;;;;;;;;;12.20;8.40;;;;;;;;4921901;29;9120;-68
2022/06/24 12:17:33;;;;;;;;;6.60;5.20;;;;;;;;4938325;28;8797;-68
2022/06/24 12:20:01;;;;;;;;;8.00;7.00;;;;;;;;4940971;28;9419;-68
2022/06/24 12:22:28;;;;;;;;;6.40;5.80;;;;;;;;4939785;28;8774;-68
2022/06/24 12:25:05;;;;;;;;;9.20;7.60;;;;;;;;4941455;29;8778;-68
2022/06/24 12:27:32;;;;;;;;;9.60;8.00;;;;;;;;4940110;29;8810;-68
2022/06/24 12:29:59;;;;;;;;;8.00;6.80;;;;;;;;4940762;28;8796;-68
2022/06/24 12:32:26;;;;;;;;;7.20;7.20;;;;;;;;4940479;28;8765;-68
2022/06/24 12:34:56;;;;;;;;;7.00;6.40;;;;;;;;4939688;29;8774;-68
2022/06/24 12:37:22;;;;;;;;;14.60;8.60;;;;;;;;4940979;29;8774;-68
2022/06/24 12:39:49;;;;;;;;;10.20;9.60;;;;;;;;4940238;28;8793;-69
2022/06/24 12:42:17;;;;;;;;;11.00;9.40;;;;;;;;4954705;28;8799;-69
2022/06/24 12:44:47;;;;;;;;;14.25;12.00;;;;;;;;4978699;28;8805;-69
2022/06/24 12:52:49;;;;;;;;;8.60;7.60;;;;;;;;4978431;28;8771;-68
2022/06/24 12:55:16;;;;;;;;;11.20;9.20;;;;;;;;4962475;28;8779;-68
2022/06/24 12:57:43;;;;;;;;;14.60;12.40;;;;;;;;4978525;28;8775;-69
2022/06/24 13:00:10;;;;;;;;;12.40;9.00;;;;;;;;4978635;28;9255;-69
2022/06/24 13:02:37;;;;;;;;;12.00;9.60;;;;;;;;4978138;28;8898;-69
2022/06/24 13:05:04;;;;;;;;;10.80;10.00;;;;;;;;4978626;28;9503;-69
2022/06/24 13:07:31;;;;;;;;;12.00;10.80;;;;;;;;4978148;28;8802;-69
2022/06/24 13:09:57;;;;;;;;;14.40;9.40;;;;;;;;4978896;28;8771;-68
2022/06/24 13:12:24;;;;;;;;;9.40;8.40;;;;;;;;4978165;28;8772;-68
2022/06/24 13:14:50;;;;;;;;;7.00;6.60;;;;;;;;4977376;28;8845;-68
2022/06/24 13:17:20;;;;;;;;;7.80;7.80;;;;;;;;4978270;28;8775;-67
2022/06/24 13:19:47;;;;;;;;;8.20;7.00;;;;;;;;4978704;28;8854;-68
2022/06/24 13:22:14;;;;;;;;;10.60;8.20;;;;;;;;4979203;28;8823;-69
2022/06/24 13:24:40;;;;;;;;;10.40;9.20;;;;;;;;4978085;28;8768;-68
2022/06/24 13:27:07;;;;;;;;;11.40;9.80;;;;;;;;4961123;28;8897;-68
2022/06/24 13:29:36;;;;;;;;;12.20;10.80;;;;;;;;4978546;28;8993;-68
2022/06/24 13:32:03;;;;;;;;;10.20;9.80;;;;;;;;4978351;28;8775;-69
2022/06/24 13:34:30;;;;;;;;;13.80;12.80;;;;;;;;4982028;28;8783;-68
2022/06/24 13:36:56;;;;;;;;;12.80;10.00;;;;;;;;4982752;28;9535;-68
2022/06/24 13:39:23;;;;;;;;;10.40;9.80;;;;;;;;4982342;28;8772;-68
2022/06/24 13:41:50;;;;;;;;;8.00;7.80;;;;;;;;4982192;28;8856;-68
2022/06/24 13:44:17;;;;;;;;;10.20;9.00;;;;;;;;4982340;28;8775;-69
2022/06/24 13:46:43;;;;;;;;;13.60;10.40;;;;;;;;4980922;28;8740;-68
2022/06/24 13:49:10;;;;;;;;;8.00;7.00;;;;;;;;4982841;28;8858;-69
2022/06/24 13:51:37;;;;;;;;;8.80;8.20;;;;;;;;4981954;28;8817;-68
2022/06/24 13:54:03;;;;;;;;;9.80;8.80;;;;;;;;4982549;28;9040;-69
2022/06/24 13:56:32;;;;;;;;;7.40;6.80;;;;;;;;4965107;28;8819;-68
2022/06/24 13:58:59;;;;;;;;;13.00;13.00;;;;;;;;4982700;28;8771;-68
2022/06/24 14:01:25;;;;;;;;;17.50;14.25;;;;;;;;4981898;28;8732;-68
2022/06/24 14:03:52;;;;;;;;;15.40;13.80;;;;;;;;4982839;28;8756;-68
2022/06/24 14:06:19;;;;;;;;;14.00;11.00;;;;;;;;4980558;28;8787;-67
2022/06/24 14:08:46;;;;;;;;;11.80;9.60;;;;;;;;4980621;28;8767;-68
2022/06/24 14:11:13;;;;;;;;;12.00;9.00;;;;;;;;4981687;28;8783;-69
2022/06/24 14:13:39;;;;;;;;;15.20;13.80;;;;;;;;4981442;28;8834;-68
2022/06/24 14:16:06;;;;;;;;;21.00;19.40;;;;;;;;4982256;28;8771;-68
2022/06/24 14:18:33;;;;;;;;;24.00;19.40;;;;;;;;4981318;28;8863;-68
2022/06/24 14:21:00;;;;;;;;;22.50;19.00;;;;;;;;4981385;28;8875;-68
2022/06/24 14:26:12;;;;;;;;;21.00;15.75;;;;;;;;4981308;28;8783;-68
2022/06/24 14:28:38;;;;;;;;;21.60;18.60;;;;;;;;4981170;28;8827;-68
2022/06/24 14:31:07;;;;;;;;;18.50;12.25;;;;;;;;4982058;28;8874;-68
2022/06/24 14:33:34;;;;;;;;;23.25;19.00;;;;;;;;4979909;28;10009;-68
2022/06/24 14:36:01;;;;;;;;;17.20;13.80;;;;;;;;4980487;28;8881;-68
2022/06/24 14:41:12;;;;;;;;;16.40;15.00;;;;;;;;4981094;28;8889;-68
2022/06/24 14:43:41;;;;;;;;;22.00;18.40;;;;;;;;4980793;28;8865;-68
2022/06/24 14:46:07;;;;;;;;;20.80;17.80;;;;;;;;4981160;28;8760;-68
2022/06/24 14:48:34;;;;;;;;;20.25;18.50;;;;;;;;4980723;28;8851;-68
2022/06/24 14:51:01;;;;;;;;;19.00;17.00;;;;;;;;4981458;28;8771;-69
2022/06/24 14:53:27;;;;;;;;;20.25;17.50;;;;;;;;4964093;28;8846;-69
2022/06/24 14:55:54;;;;;;;;;22.25;20.75;;;;;;;;4981304;28;8877;-68
2022/06/24 14:58:21;;;;;;;;;21.25;17.00;;;;;;;;4981287;28;8794;-69
2022/06/24 15:00:47;;;;;;;;;21.75;20.75;;;;;;;;4980953;28;9542;-69
2022/06/24 15:03:14;;;;;;;;;24.50;21.00;;;;;;;;4981374;28;8784;-69
2022/06/24 15:05:41;;;;;;;;;31.75;27.00;;;;;;;;4980986;28;8780;-69
2022/06/24 15:08:07;;;;;;;;;27.00;23.75;;;;;;;;4981086;28;8783;-69
2022/06/24 15:10:34;;;;;;;;;26.40;19.60;;;;;;;;4963713;28;8834;-68